Kane, PA (16735)

7:24 AM EST on February 10, 2016 (GMT -0500)
Division Street Ext. | | Change Station
CLOSE
Current Station
Personal Weather Station
Location: Mt Jewett, PA
Elevation: 2245 ft
Nearby Weather Stations
Active Advisory: Lake Effect Snow Advisory

Elev 2245 ft 41.70 °N, 78.64 °W | Updated 3 minutes ago

Snow
Snow
20.2 °F
Feels Like 20 °F
N
2.2
Wind Variable Wind from WNW
Gusts 4.7 mph

Today
High -- | Low -- °F
--% Chance of Precip.
Yesterday
High -- | Low -- °F
Precip. -- in
Pressure 29.57 in
Visibility 1.2 miles
Clouds Overcast 2400 ft
Windchill 20 °F
Dew Point 17 °F
Humidity 87%
Rainfall 0.00 in
Snow Depth Not available.
7:17 AM 5:41 PM
Waxing Crescent, 5% visible
SPECI KBFD 101217Z AUTO 27008KT 1 1/4SM -SN OVC024 M06/M09 A2957 RMK AO2 P0000 T10611089
Pressure 29.57 in
Visibility 1.2 miles
Clouds Overcast 2400 ft
Windchill 20 °F
Dew Point 17 °F
Humidity 87%
Rainfall 0.00 in
Snow Depth Not available.
7:17 AM 5:41 PM
Waxing Crescent, 5% visible
SPECI KBFD 101217Z AUTO 27008KT 1 1/4SM -SN OVC024 M06/M09 A2957 RMK AO2 P0000 T10611089

10-Day Weather Forecast

Almanac

Astronomy

Feb. 10, 2016 Rise Set
Actual Time
Civil Twilight
Nautical Twilight
Astronomical Twilight
Moon
Length of Visible Light
Length of Day
Tomorrow will be .
, % of the Moon is Illuminated

Today's Extremes

State Highs State Lows

Community

WunderPhotos

Upload Photos

1,891,835 photos uploaded!

WunderBlog® & News

Nearby

Air Quality

  Air Quality AQ Index Pollutant
Not available.

Snow Depth

Station Depth Elevation

Earthquake Activity

City Distance Mag. Time & Date
Minimum magnitude displayed is 2.5.

Coastal Water Temperatures

Place Temperature

Stations

Nearby Weather Stations

Station Location Temp. Windchill Dew Point Humidity Wind Precip. Elev Updated Type
                   

Watches & Warnings

Lake Effect Snow Advisory
Issued: 3:30 AM EST Feb. 10, 2016 – National Weather Service

... Lake effect Snow Advisory remains in effect until 1 PM EST
Thursday...

* hazard types... lake effect snow.

* Snow accumulations... 4 to 6 inches. Locally higher amounts are
possible north of Route 59.

* Timing... lake effect snow showers will develop this morning and
continue into Thursday.

Precautionary/preparedness actions...

During periods of lake effect snow... the weather can vary from
locally heavy snow in narrow bands to clear skies just a few miles
away. If you will be traveling across the region be prepared for
rapid changes in Road and visibility conditions.

Report snow accumulation to the National Weather Service in State
College by sending an email to ctp.Stormreports@noaa.Gov...
posting to the NWS State College facebook Page... or tweet... using
the hashtag c... T... p... W... x.